Time;durP1;ratioP1;P1;durP2;ratioP2;P2;SDS_P1;SDS_P2;PMS_P1;PMS_P2;Temp;Humidity;BMP_temperature;BMP_pressure;BME280_temperature;BME280_humidity;BME280_pressure;Samples;Min_cycle;Max_cycle;Signal;HPM_P1;HPM_P2
2022/05/21 00:00:55;;;;;;;2.53;1.10;;;18.60;99.90;;;;;;4838591;29;20098;-88
2022/05/21 00:03:43;;;;;;;3.42;1.05;;;18.60;99.90;;;;;;4847050;29;20029;-89
2022/05/21 00:06:09;;;;;;;1.48;0.80;;;18.70;99.90;;;;;;4848038;29;20040;-88
2022/05/21 00:08:35;;;;;;;2.33;1.00;;;18.70;99.90;;;;;;4870314;29;20046;-88
2022/05/21 00:11:01;;;;;;;2.17;1.00;;;18.80;99.90;;;;;;4879709;29;20029;-89
2022/05/21 00:13:27;;;;;;;3.70;0.95;;;18.60;99.90;;;;;;4865759;29;20097;-88
2022/05/21 00:15:53;;;;;;;3.25;1.17;;;18.60;99.90;;;;;;4860759;29;20049;-90
2022/05/21 00:18:19;;;;;;;1.95;0.88;;;18.60;99.90;;;;;;4864977;29;20058;-89
2022/05/21 00:20:48;;;;;;;2.53;1.00;;;18.60;99.90;;;;;;4840956;29;20037;-89
2022/05/21 00:23:21;;;;;;;2.10;0.90;;;18.50;99.90;;;;;;4834483;29;20042;-89
2022/05/21 00:25:49;;;;;;;1.48;0.60;;;18.40;99.90;;;;;;4831383;29;20056;-89
2022/05/21 00:28:15;;;;;;;1.98;0.63;;;18.40;99.90;;;;;;4826791;29;20455;-89
2022/05/21 00:30:42;;;;;;;2.00;0.80;;;18.30;99.90;;;;;;4834819;29;20030;-89
2022/05/21 00:33:08;;;;;;;1.58;0.80;;;18.30;99.90;;;;;;4833674;29;20038;-88
2022/05/21 00:35:34;;;;;;;2.03;0.82;;;18.30;99.90;;;;;;4835817;29;20141;-89
2022/05/21 00:38:00;;;;;;;2.08;0.98;;;18.30;99.90;;;;;;4831768;29;20049;-88
2022/05/21 00:40:27;;;;;;;3.90;0.80;;;18.20;99.90;;;;;;4837913;29;20030;-89
2022/05/21 00:42:52;;;;;;;1.70;0.70;;;18.30;99.90;;;;;;4836204;29;20049;-89
2022/05/21 00:45:18;;;;;;;2.28;0.75;;;18.20;99.90;;;;;;4845582;24;20072;-88
2022/05/21 00:47:47;;;;;;;1.70;0.90;;;17.90;99.90;;;;;;4840951;29;20054;-88
2022/05/21 00:50:22;;;;;;;1.33;0.55;;;18.00;99.90;;;;;;4842426;29;20022;-88
2022/05/21 00:52:49;;;;;;;1.67;0.80;;;17.90;99.90;;;;;;4839853;29;20082;-88
2022/05/21 00:55:22;;;;;;;1.70;0.70;;;17.90;99.90;;;;;;4840896;29;20022;-88
2022/05/21 00:59:47;;;;;;;2.13;0.80;;;17.90;99.90;;;;;;4853009;29;20522;-88
2022/05/21 01:00:40;;;;;;;1.55;0.80;;;17.90;99.90;;;;;;4840281;29;20026;-88
2022/05/21 01:03:12;;;;;;;1.83;0.88;;;17.80;99.90;;;;;;4837125;29;20030;-88
2022/05/21 01:05:43;;;;;;;1.10;0.60;;;17.80;99.90;;;;;;4839640;29;20054;-88
2022/05/21 01:08:11;;;;;;;3.15;0.77;;;17.70;99.90;;;;;;4840681;29;20040;-88
2022/05/21 01:10:46;;;;;;;1.20;0.60;;;17.60;99.90;;;;;;4841105;29;20116;-88
2022/05/21 01:13:16;;;;;;;2.80;0.80;;;17.60;99.90;;;;;;4839623;29;20066;-88
2022/05/21 01:15:51;;;;;;;2.07;0.90;;;17.60;99.90;;;;;;4839727;29;20739;-88
2022/05/21 01:18:17;;;;;;;3.40;0.90;;;17.60;99.90;;;;;;4841254;29;20339;-89
2022/05/21 01:20:55;;;;;;;1.30;0.60;;;17.60;99.90;;;;;;4840439;29;20507;-88
2022/05/21 01:23:21;;;;;;;1.60;0.55;;;17.50;99.90;;;;;;4842372;29;20124;-88
2022/05/21 01:25:56;;;;;;;1.48;0.65;;;17.50;99.90;;;;;;4842501;29;20068;-89
2022/05/21 01:28:36;;;;;;;1.85;0.68;;;17.40;99.90;;;;;;4853504;29;20030;-89
2022/05/21 01:31:02;;;;;;;1.75;0.70;;;17.40;99.90;;;;;;4839204;29;20046;-88
2022/05/21 01:33:31;;;;;;;1.30;0.60;;;17.40;99.90;;;;;;4837152;29;20439;-89
2022/05/21 01:36:01;;;;;;;1.27;0.55;;;17.30;99.90;;;;;;4840316;29;20117;-89
2022/05/21 01:38:28;;;;;;;2.40;0.68;;;17.40;99.90;;;;;;4836970;29;20023;-90
2022/05/21 01:41:10;;;;;;;2.08;0.60;;;17.40;99.90;;;;;;4840827;29;20034;-88
2022/05/21 01:46:25;;;;;;;1.80;0.50;;;17.30;99.90;;;;;;4843418;29;20064;-88
2022/05/21 01:48:54;;;;;;;1.52;0.60;;;17.30;99.90;;;;;;4841827;29;20113;-89
2022/05/21 01:51:20;;;;;;;1.38;0.55;;;17.30;99.90;;;;;;4843520;29;20030;-88
2022/05/21 01:53:46;;;;;;;1.58;0.80;;;17.30;99.90;;;;;;4845124;29;20030;-88
2022/05/21 01:56:18;;;;;;;1.15;0.50;;;17.30;99.90;;;;;;4839596;29;20156;-89
2022/05/21 01:58:46;;;;;;;;;;;17.20;99.90;;;;;;4840403;29;20038;-89
2022/05/21 02:01:15;;;;;;;1.13;0.52;;;17.20;99.90;;;;;;4837492;29;19912;-89
2022/05/21 02:03:43;;;;;;;2.83;0.60;;;17.20;99.90;;;;;;4836622;29;20073;-88
2022/05/21 02:06:09;;;;;;;2.25;0.80;;;17.20;99.90;;;;;;4837058;29;20034;-88
2022/05/21 02:08:35;;;;;;;1.98;0.65;;;17.10;99.90;;;;;;4840038;29;20040;-89
2022/05/21 02:11:04;;;;;;;2.20;0.80;;;17.00;99.90;;;;;;4839595;29;20097;-89
2022/05/21 02:13:31;;;;;;;1.83;0.60;;;16.80;99.90;;;;;;4837996;29;20076;-89
2022/05/21 02:16:02;;;;;;;1.50;0.63;;;16.80;99.90;;;;;;4835532;29;20190;-88
2022/05/21 02:18:28;;;;;;;1.75;0.70;;;16.90;99.90;;;;;;4841415;29;20033;-89
2022/05/21 02:20:54;;;;;;;1.35;0.57;;;16.80;99.90;;;;;;4837173;29;20036;-88
2022/05/21 02:23:21;;;;;;;1.92;0.73;;;16.50;99.90;;;;;;4836327;29;20071;-88
2022/05/21 02:25:51;;;;;;;1.40;0.57;;;16.70;99.90;;;;;;4838471;29;20523;-89
2022/05/21 02:28:17;;;;;;;1.33;0.47;;;16.50;99.90;;;;;;4829920;29;20106;-88
2022/05/21 02:30:48;;;;;;;1.35;0.50;;;16.50;99.90;;;;;;4838496;29;20057;-88
2022/05/21 02:33:14;;;;;;;1.73;0.50;;;16.40;99.90;;;;;;4839359;29;20487;-89
2022/05/21 02:35:40;;;;;;;1.48;0.50;;;16.30;99.90;;;;;;4836988;29;20099;-88
2022/05/21 02:41:08;;;;;;;1.50;0.45;;;16.30;99.90;;;;;;4849293;29;20091;-89
2022/05/21 02:43:37;;;;;;;1.27;0.50;;;16.30;99.90;;;;;;4840912;29;20035;-87
2022/05/21 02:46:02;;;;;;;1.25;0.50;;;16.30;99.90;;;;;;4834635;29;20069;-88
2022/05/21 02:48:31;;;;;;;1.83;0.50;;;16.20;99.90;;;;;;4846822;29;20033;-89
2022/05/21 02:50:59;;;;;;;1.10;0.40;;;16.20;99.90;;;;;;4849284;29;20037;-88
2022/05/21 02:53:25;;;;;;;0.98;0.40;;;16.20;99.90;;;;;;4846748;29;20131;-89
2022/05/21 02:55:53;;;;;;;1.77;0.55;;;16.10;99.90;;;;;;4839581;29;20030;-88
2022/05/21 02:58:19;;;;;;;1.35;0.50;;;16.00;99.90;;;;;;4844567;29;20392;-89
2022/05/21 03:00:45;;;;;;;1.08;0.40;;;16.00;99.90;;;;;;4849974;29;20030;-88
2022/05/21 03:03:11;;;;;;;1.55;0.70;;;15.90;99.90;;;;;;4849224;29;20058;-88
2022/05/21 03:05:37;;;;;;;1.15;0.50;;;15.80;99.90;;;;;;4846080;29;20125;-88
2022/05/21 03:11:10;;;;;;;1.15;0.50;;;15.80;99.90;;;;;;4847567;29;20086;-89
2022/05/21 03:13:48;;;;;;;1.10;0.55;;;15.80;99.90;;;;;;4842343;29;20435;-89
2022/05/21 03:16:26;;;;;;;2.50;0.68;;;15.80;99.90;;;;;;4845168;29;20034;-88
2022/05/21 03:18:57;;;;;;;2.28;0.60;;;15.80;99.90;;;;;;4846328;29;20034;-88
2022/05/21 03:21:26;;;;;;;1.60;0.60;;;15.80;99.90;;;;;;4843906;29;20038;-89
2022/05/21 03:23:59;;;;;;;1.50;0.70;;;15.70;99.90;;;;;;4841296;29;20037;-88
2022/05/21 03:26:30;;;;;;;2.63;1.08;;;15.70;99.90;;;;;;4842309;29;20042;-88
2022/05/21 03:29:03;;;;;;;2.13;0.67;;;15.70;99.90;;;;;;4837282;29;20037;-88
2022/05/21 03:31:35;;;;;;;0.93;0.60;;;15.60;99.90;;;;;;4845044;29;20457;-89
2022/05/21 03:34:01;;;;;;;2.10;0.70;;;15.70;99.90;;;;;;4844464;29;20054;-89
2022/05/21 03:36:27;;;;;;;1.75;0.60;;;15.60;99.90;;;;;;4840898;29;20061;-88
2022/05/21 03:38:53;;;;;;;1.10;0.50;;;15.50;99.90;;;;;;4841457;29;20042;-88
2022/05/21 03:41:25;;;;;;;1.95;0.85;;;15.50;99.90;;;;;;4843279;29;20097;-88
2022/05/21 03:43:54;;;;;;;1.50;0.68;;;15.50;99.90;;;;;;4836320;29;20044;-89
2022/05/21 03:46:23;;;;;;;2.05;0.80;;;15.40;99.90;;;;;;4840990;29;20133;-90
2022/05/21 03:49:13;;;;;;;1.38;0.60;;;15.40;99.90;;;;;;4839998;29;20045;-88
2022/05/21 03:51:44;;;;;;;1.67;0.80;;;15.30;99.90;;;;;;4842577;29;20073;-89
2022/05/21 03:54:21;;;;;;;2.53;0.73;;;15.30;99.90;;;;;;4841607;29;20049;-88
2022/05/21 03:56:49;;;;;;;2.53;0.55;;;15.30;99.90;;;;;;4839328;29;20034;-88
2022/05/21 03:59:15;;;;;;;3.00;0.80;;;15.30;99.90;;;;;;4842551;29;20523;-89
2022/05/21 04:01:46;;;;;;;3.45;0.63;;;15.20;99.90;;;;;;4840667;29;20033;-88
2022/05/21 04:04:15;;;;;;;1.33;0.60;;;15.10;99.90;;;;;;4842401;29;20030;-88
2022/05/21 04:06:51;;;;;;;2.63;0.80;;;15.10;99.90;;;;;;4841869;29;20030;-89
2022/05/21 04:09:19;;;;;;;3.53;0.80;;;15.10;99.90;;;;;;4840086;29;20037;-88
2022/05/21 04:11:45;;;;;;;2.20;0.80;;;15.00;99.90;;;;;;4838165;29;20053;-88
2022/05/21 04:14:14;;;;;;;4.80;0.95;;;14.90;99.90;;;;;;4841373;29;20038;-88
2022/05/21 04:16:42;;;;;;;2.15;0.90;;;14.90;99.90;;;;;;4844073;29;20407;-89
2022/05/21 04:19:09;;;;;;;1.73;0.75;;;15.00;99.90;;;;;;4841145;29;20110;-88
2022/05/21 04:21:35;;;;;;;1.50;0.60;;;14.90;99.90;;;;;;4844652;29;21273;-88
2022/05/21 04:24:06;;;;;;;1.77;0.70;;;14.90;99.90;;;;;;4844138;29;20046;-88
2022/05/21 04:26:32;;;;;;;1.67;0.57;;;14.90;99.90;;;;;;4846389;29;20045;-88
2022/05/21 04:28:59;;;;;;;1.38;0.70;;;14.80;99.90;;;;;;4836011;29;20515;-88
2022/05/21 04:31:24;;;;;;;1.42;0.70;;;14.80;99.90;;;;;;4840884;29;20041;-88
2022/05/21 04:33:56;;;;;;;2.22;0.80;;;14.80;99.90;;;;;;4835655;29;20046;-88
2022/05/21 04:36:22;;;;;;;2.17;0.70;;;14.90;99.90;;;;;;4838863;29;20174;-88
2022/05/21 04:39:20;;;;;;;1.42;0.60;;;15.00;99.90;;;;;;4839800;29;20521;-88
2022/05/21 04:41:48;;;;;;;1.95;0.75;;;15.00;99.90;;;;;;4839622;29;20037;-87
2022/05/21 04:44:17;;;;;;;1.58;0.77;;;15.10;99.90;;;;;;4836752;29;20033;-87
2022/05/21 04:46:43;;;;;;;1.23;0.60;;;15.20;99.90;;;;;;4839237;29;20046;-89
2022/05/21 04:49:16;;;;;;;2.03;0.65;;;15.40;99.90;;;;;;4840394;29;20039;-89
2022/05/21 04:51:47;;;;;;;1.90;0.90;;;15.20;99.90;;;;;;4837836;29;20030;-88
2022/05/21 04:54:13;;;;;;;2.17;0.80;;;15.30;99.90;;;;;;4837285;29;20050;-89
2022/05/21 04:56:38;;;;;;;3.03;0.95;;;15.30;99.90;;;;;;4839613;29;20410;-89
2022/05/21 04:59:04;;;;;;;1.40;0.75;;;15.30;99.90;;;;;;4837161;29;20109;-89
2022/05/21 05:01:32;;;;;;;2.88;0.75;;;15.30;99.90;;;;;;4837701;29;20066;-89
2022/05/21 05:03:58;;;;;;;1.40;0.80;;;15.40;99.90;;;;;;4832576;29;20147;-88
2022/05/21 05:06:24;;;;;;;1.27;0.68;;;15.30;99.90;;;;;;4837882;29;20038;-88
2022/05/21 05:08:52;;;;;;;1.38;0.63;;;15.40;99.90;;;;;;4834211;29;20046;-89
2022/05/21 05:11:20;;;;;;;2.40;0.88;;;15.40;99.90;;;;;;4835711;29;20029;-89
2022/05/21 05:13:46;;;;;;;2.08;0.70;;;15.30;99.90;;;;;;4840696;29;20065;-89
2022/05/21 05:16:14;;;;;;;2.15;0.80;;;15.40;99.90;;;;;;4830790;29;20119;-89
2022/05/21 05:18:43;;;;;;;1.35;0.70;;;15.40;99.90;;;;;;4836640;29;20151;-89
2022/05/21 05:21:09;;;;;;;2.42;0.70;;;15.40;99.90;;;;;;4839315;29;20082;-89
2022/05/21 05:23:39;;;;;;;3.28;0.50;;;15.40;99.90;;;;;;4835267;29;20030;-90
2022/05/21 05:26:10;;;;;;;1.42;0.70;;;15.50;99.90;;;;;;4833516;29;20037;-90
2022/05/21 05:28:36;;;;;;;1.85;0.70;;;15.60;99.90;;;;;;4832685;29;20049;-90
2022/05/21 05:31:01;;;;;;;2.50;0.70;;;15.70;99.90;;;;;;4835539;29;20045;-89
2022/05/21 05:33:29;;;;;;;2.03;0.70;;;15.60;99.90;;;;;;4835355;29;20030;-90
2022/05/21 05:35:57;;;;;;;1.48;0.70;;;15.60;99.90;;;;;;4834530;29;20106;-90
2022/05/21 05:38:26;;;;;;;3.25;0.75;;;15.70;99.90;;;;;;4833989;29;20045;-90
2022/05/21 05:40:55;;;;;;;1.42;0.50;;;15.80;99.90;;;;;;4835682;29;20061;-90
2022/05/21 05:43:22;;;;;;;1.80;0.68;;;15.90;99.90;;;;;;4839058;29;20038;-89
2022/05/21 05:45:58;;;;;;;2.60;0.65;;;16.10;99.90;;;;;;4793528;29;1162964;-90
2022/05/21 05:48:32;;;;;;;0.93;0.50;;;16.00;99.90;;;;;;4839526;29;20070;-89
2022/05/21 05:51:02;;;;;;;2.30;0.55;;;16.10;99.90;;;;;;4835932;29;20680;-90
2022/05/21 05:53:28;;;;;;;1.55;0.50;;;16.20;99.90;;;;;;4837143;29;20041;-90
2022/05/21 05:55:54;;;;;;;1.38;0.60;;;16.10;99.90;;;;;;4832125;29;20034;-89
2022/05/21 06:01:07;;;;;;;1.42;0.50;;;16.40;99.90;;;;;;4834918;29;20520;-90
2022/05/21 06:03:36;;;;;;;0.65;0.40;;;16.50;99.90;;;;;;4832450;29;20117;-89
2022/05/21 06:06:05;;;;;;;2.13;0.47;;;16.50;99.90;;;;;;4835917;29;20534;-90
2022/05/21 06:08:31;;;;;;;1.35;0.50;;;16.40;99.90;;;;;;4831466;29;20085;-89
2022/05/21 06:10:57;;;;;;;1.17;0.30;;;16.50;99.90;;;;;;4831159;29;20042;-89
2022/05/21 06:13:25;;;;;;;0.80;0.30;;;16.60;99.90;;;;;;4836433;29;20034;-89
2022/05/21 06:15:51;;;;;;;1.50;0.35;;;16.60;99.90;;;;;;4838434;29;20143;-89
2022/05/21 06:18:19;;;;;;;0.50;0.20;;;16.50;99.90;;;;;;4837234;29;20034;-88
2022/05/21 06:20:46;;;;;;;0.65;0.20;;;16.60;99.90;;;;;;4833344;29;20030;-90
2022/05/21 06:23:12;;;;;;;0.88;0.50;;;16.50;99.90;;;;;;4835316;29;20074;-90
2022/05/21 06:25:38;;;;;;;0.70;0.20;;;16.40;99.90;;;;;;4831616;29;20030;-90
2022/05/21 06:28:38;;;;;;;3.42;0.30;;;16.30;99.90;;;;;;4838248;29;20034;-90
2022/05/21 06:31:05;;;;;;;1.02;0.30;;;16.50;99.90;;;;;;4839021;29;20034;-90
2022/05/21 06:33:32;;;;;;;1.48;0.30;;;16.70;99.90;;;;;;4836124;29;20026;-90
2022/05/21 06:36:19;;;;;;;0.82;0.43;;;16.80;99.90;;;;;;4838208;29;20034;-92
2022/05/21 06:38:47;;;;;;;0.47;0.28;;;17.00;99.90;;;;;;4831793;29;20045;-91
2022/05/21 06:41:15;;;;;;;0.63;0.22;;;16.80;99.90;;;;;;4838163;29;20130;-90
2022/05/21 06:43:42;;;;;;;0.95;0.43;;;16.90;99.90;;;;;;4835598;29;20095;-89
2022/05/21 06:46:09;;;;;;;1.05;0.45;;;17.00;99.90;;;;;;4838423;29;20077;-90
2022/05/21 06:48:34;;;;;;;0.93;0.20;;;17.00;99.90;;;;;;4851531;29;20037;-89
2022/05/21 06:51:05;;;;;;;0.43;0.20;;;17.10;99.90;;;;;;4837706;29;20034;-89
2022/05/21 06:53:40;;;;;;;0.15;0.10;;;17.40;99.90;;;;;;4836677;29;20073;-89
2022/05/21 06:56:16;;;;;;;0.40;0.20;;;17.50;99.90;;;;;;4854345;24;20058;-89
2022/05/21 06:58:42;;;;;;;0.85;0.28;;;17.70;99.90;;;;;;4833768;29;20547;-89
2022/05/21 07:01:09;;;;;;;1.55;0.40;;;17.90;99.90;;;;;;4837437;29;20396;-90
2022/05/21 07:03:34;;;;;;;0.40;0.20;;;17.70;99.90;;;;;;4836781;29;20093;-90
2022/05/21 07:08:45;;;;;;;1.00;0.20;;;17.80;99.90;;;;;;4842383;29;20083;-90
2022/05/21 07:11:13;;;;;;;2.67;0.28;;;17.90;99.90;;;;;;4839931;29;20054;-89
2022/05/21 07:13:39;;;;;;;0.52;0.20;;;17.90;99.90;;;;;;4841236;29;20067;-90
2022/05/21 07:16:06;;;;;;;0.43;0.20;;;18.20;99.90;;;;;;4839261;29;20030;-90
2022/05/21 07:18:32;;;;;;;0.43;0.20;;;18.20;99.60;;;;;;4838555;29;20034;-90
2022/05/21 07:20:58;;;;;;;1.13;0.30;;;18.50;99.70;;;;;;4840766;29;20036;-90
2022/05/21 07:23:29;;;;;;;1.90;0.30;;;18.40;99.10;;;;;;4840281;29;20060;-91
2022/05/21 07:25:55;;;;;;;0.40;0.20;;;18.50;99.00;;;;;;4854296;29;20029;-91
2022/05/21 07:28:40;;;;;;;1.02;0.30;;;18.60;98.60;;;;;;4862340;29;20263;-90
2022/05/21 07:31:06;;;;;;;0.60;0.30;;;18.60;98.40;;;;;;4851726;29;20050;-91
2022/05/21 07:33:32;;;;;;;0.47;0.28;;;18.50;97.90;;;;;;4846222;29;20078;-91
2022/05/21 07:35:57;;;;;;;0.60;0.20;;;18.50;98.10;;;;;;4852137;29;20018;-92
2022/05/21 07:38:36;;;;;;;1.85;0.20;;;18.40;98.10;;;;;;4856851;29;20042;-90
2022/05/21 07:44:32;;;;;;;;;;;;;;;;;;;;;
2022/05/21 07:47:01;;;;;;;0.70;0.10;;;18.70;98.30;;;;;;4877132;29;20068;-90
2022/05/21 07:49:27;;;;;;;0.43;0.30;;;18.70;97.50;;;;;;4870337;29;20025;-92
2022/05/21 07:51:53;;;;;;;0.17;0.10;;;18.90;97.40;;;;;;4871012;29;20105;-92
2022/05/21 07:55:10;;;;;;;0.90;0.10;;;18.90;97.20;;;;;;4857201;29;20042;-91
2022/05/21 07:58:18;;;;;;;0.35;0.17;;;18.80;97.70;;;;;;4848683;29;20133;-91
2022/05/21 08:01:13;;;;;;;2.28;0.20;;;19.00;97.50;;;;;;4854812;29;20117;-92
2022/05/21 08:03:58;;;;;;;0.10;0.10;;;19.30;96.90;;;;;;4846014;29;20036;-91
2022/05/21 08:07:11;;;;;;;0.50;0.10;;;19.50;97.10;;;;;;4849247;29;20030;-92
2022/05/21 08:10:26;;;;;;;0.50;0.10;;;19.50;96.30;;;;;;4851390;29;20032;-92
2022/05/21 08:13:29;;;;;;;0.25;0.10;;;19.70;96.20;;;;;;4848534;29;20120;-91
2022/05/21 08:41:54;;;;;;;0.73;0.20;;;20.90;93.40;;;;;;4873981;29;20065;-92
2022/05/21 08:44:57;;;;;;;0.22;0.10;;;20.90;93.40;;;;;;4873112;29;20062;-91
2022/05/21 08:48:12;;;;;;;;;;;;;;;;;;;;;
2022/05/21 08:51:32;;;;;;;0.10;0.00;;;21.40;93.00;;;;;;4842927;29;20028;-90
2022/05/21 08:54:46;;;;;;;0.40;0.10;;;21.40;91.60;;;;;;4840360;29;20050;-89
2022/05/21 08:57:41;;;;;;;0.00;0.00;;;21.60;91.50;;;;;;4840810;29;20034;-91
2022/05/21 09:00:58;;;;;;;0.30;0.10;;;21.70;91.80;;;;;;4871062;29;20072;-90
2022/05/21 09:04:09;;;;;;;;;;;;;;;;;;;;;
2022/05/21 09:07:20;;;;;;;20.70;1.02;;;22.10;91.40;;;;;;4881119;29;20124;-91
2022/05/21 09:14:06;;;;;;;0.03;0.03;;;22.70;90.00;;;;;;4855175;29;20040;-91
2022/05/21 09:20:25;;;;;;;;;;;;;;;;;;;;;
2022/05/21 09:23:43;;;;;;;;;;;;;;;;;;;;;
2022/05/21 09:41:44;;;;;;;0.25;0.17;;;23.50;83.40;;;;;;1143403;23;21124;-88
2022/05/21 09:48:40;;;;;;;0.30;0.10;;;24.20;82.50;;;;;;4842691;29;20048;-89
2022/05/21 09:51:31;;;;;;;0.13;0.10;;;24.00;80.50;;;;;;4837972;29;20038;-89
2022/05/21 09:53:58;;;;;;;0.63;0.10;;;24.10;80.50;;;;;;4830025;29;20030;-89
2022/05/21 09:56:33;;;;;;;0.10;0.10;;;24.20;79.60;;;;;;4840323;29;20053;-87
2022/05/21 09:59:40;;;;;;;1.13;0.10;;;24.10;79.20;;;;;;4839379;29;20114;-87
2022/05/21 10:02:22;;;;;;;0.57;0.28;;;24.10;79.10;;;;;;4850375;29;20036;-87
2022/05/21 10:04:57;;;;;;;0.28;0.10;;;24.20;80.40;;;;;;4840880;29;20030;-88
2022/05/21 10:13:21;;;;;;;0.30;0.10;;;23.60;81.90;;;;;;4837923;29;20029;-90
2022/05/21 10:16:14;;;;;;;0.40;0.10;;;24.00;81.30;;;;;;4840551;29;20026;-90
2022/05/21 10:18:51;;;;;;;0.55;0.20;;;24.30;81.10;;;;;;4834280;29;20018;-89
2022/05/21 10:21:42;;;;;;;0.10;0.10;;;24.60;80.30;;;;;;4833916;29;20029;-89
2022/05/21 10:24:19;;;;;;;0.40;0.10;;;24.60;79.40;;;;;;4836132;29;20038;-90
2022/05/21 10:27:12;;;;;;;0.30;0.10;;;24.60;79.40;;;;;;4830769;29;20034;-89
2022/05/21 10:29:38;;;;;;;0.30;0.25;;;24.60;79.50;;;;;;4836380;29;20039;-88
2022/05/21 10:32:34;;;;;;;0.35;0.10;;;24.70;78.80;;;;;;4837715;29;20038;-88
2022/05/21 10:35:52;;;;;;;0.50;0.20;;;24.40;77.90;;;;;;4843328;29;20038;-89
2022/05/21 10:38:55;;;;;;;0.88;0.10;;;24.70;78.60;;;;;;4837319;29;20036;-88
2022/05/21 10:42:29;;;;;;;;;;;;;;;;;;;;;
2022/05/21 10:46:03;;;;;;;;;;;;;;;;;;;;;
2022/05/21 10:52:56;;;;;;;;;;;;;;;;;;;;;
2022/05/21 10:56:06;;;;;;;2.25;0.30;;;25.30;77.90;;;;;;4835470;29;20044;-89
2022/05/21 11:03:02;;;;;;;0.45;0.10;;;25.50;77.80;;;;;;4854096;29;20037;-89
2022/05/21 11:06:20;;;;;;;;;;;;;;;;;;;;;
2022/05/21 11:13:16;;;;;;;0.17;0.10;;;25.50;75.60;;;;;;4810365;29;20116;-89
2022/05/21 11:19:04;;;;;;;0.20;0.10;;;26.40;75.00;;;;;;4841535;29;20034;-88
2022/05/21 11:21:58;;;;;;;0.50;0.10;;;26.00;74.90;;;;;;4821148;29;20095;-89
2022/05/21 11:24:55;;;;;;;0.28;0.10;;;25.40;76.10;;;;;;4805043;29;20042;-89
2022/05/21 11:37:18;;;;;;;0.82;0.40;;;25.40;75.50;;;;;;4822423;29;20065;-90
2022/05/21 11:37:55;;;;;;;0.30;0.17;;;25.50;74.90;;;;;;4815817;29;20122;-89
2022/05/21 11:51:52;;;;;;;4.35;0.10;;;25.90;74.10;;;;;;4813687;29;20047;-90
2022/05/21 11:58:05;;;;;;;0.80;0.10;;;25.90;74.30;;;;;;5015471;24;20072;-88
2022/05/21 12:00:33;;;;;;;0.98;0.28;;;26.40;74.50;;;;;;4855190;29;20025;-87
2022/05/21 12:03:10;;;;;;;0.60;0.43;;;26.60;73.30;;;;;;4858361;29;20014;-87
2022/05/21 12:05:37;;;;;;;1.00;0.15;;;26.80;71.90;;;;;;4852161;29;20052;-87
2022/05/21 12:08:25;;;;;;;0.50;0.10;;;26.30;72.50;;;;;;4851500;29;20021;-87
2022/05/21 12:11:39;;;;;;;0.80;0.10;;;26.10;73.00;;;;;;4868366;29;20028;-87
2022/05/21 12:14:25;;;;;;;0.93;0.28;;;26.40;73.80;;;;;;4844316;29;20045;-87
2022/05/21 12:16:53;;;;;;;0.93;0.10;;;26.30;72.10;;;;;;4848228;29;20037;-86
2022/05/21 12:20:04;;;;;;;0.32;0.10;;;26.50;72.70;;;;;;4853096;29;20030;-88
2022/05/21 12:22:42;;;;;;;0.88;0.10;;;26.90;72.50;;;;;;4870368;29;20029;-86
2022/05/21 12:25:43;;;;;;;0.85;0.10;;;27.10;73.00;;;;;;4865139;29;20040;-86
2022/05/21 12:28:10;;;;;;;0.90;0.20;;;27.40;71.30;;;;;;4858782;29;20025;-87
2022/05/21 12:30:38;;;;;;;0.73;0.20;;;27.30;69.50;;;;;;4844603;29;20133;-88
2022/05/21 12:33:06;;;;;;;1.05;0.20;;;27.50;68.90;;;;;;4848829;29;20080;-88
2022/05/21 12:39:02;;;;;;;0.20;0.10;;;27.50;69.20;;;;;;4848437;29;20038;-89
2022/05/21 12:42:20;;;;;;;;;;;;;;;;;;;;;
2022/05/21 12:44:58;;;;;;;1.80;0.25;;;28.00;68.70;;;;;;4848623;29;20041;-88
2022/05/21 12:48:08;;;;;;;;;;;;;;;;;;;;;
2022/05/21 12:51:17;;;;;;;0.40;0.10;;;27.50;67.70;;;;;;4854088;29;20026;-88
2022/05/21 12:53:56;;;;;;;0.68;0.10;;;27.20;67.30;;;;;;4842850;29;20065;-88
2022/05/21 12:56:27;;;;;;;0.73;0.13;;;27.30;67.80;;;;;;4863384;29;20067;-87
2022/05/21 12:59:10;;;;;;;;;;;27.30;67.90;;;;;;4857240;29;20062;-86
2022/05/21 13:01:43;;;;;;;2.75;0.20;;;27.30;67.20;;;;;;4846862;29;19920;-87
2022/05/21 13:04:24;;;;;;;0.13;0.05;;;27.00;67.30;;;;;;4846860;29;20733;-86
2022/05/21 13:06:55;;;;;;;0.65;0.10;;;27.00;67.50;;;;;;4852975;29;20495;-85
2022/05/21 13:09:20;;;;;;;;;;;27.10;67.90;;;;;;4843855;29;20529;-86
2022/05/21 13:11:47;;;;;;;0.40;0.10;;;27.20;66.40;;;;;;4852742;29;19915;-86
2022/05/21 13:14:23;;;;;;;0.60;0.10;;;27.50;66.20;;;;;;4865395;29;20446;-88
2022/05/21 13:16:54;;;;;;;1.38;0.17;;;27.80;65.00;;;;;;4849038;29;20082;-88
2022/05/21 13:19:41;;;;;;;0.57;0.32;;;28.40;63.40;;;;;;4873496;29;20029;-88
2022/05/21 13:22:23;;;;;;;0.80;0.20;;;28.90;64.60;;;;;;4864762;29;20043;-88
2022/05/21 13:25:03;;;;;;;1.23;0.13;;;29.40;63.70;;;;;;4865042;29;20021;-87
2022/05/21 13:27:50;;;;;;;1.55;0.10;;;29.10;63.10;;;;;;4880195;29;20029;-88
2022/05/21 13:30:20;;;;;;;0.30;0.10;;;29.30;61.80;;;;;;4875495;29;20041;-88
2022/05/21 13:32:57;;;;;;;0.77;0.30;;;29.30;60.90;;;;;;4842870;29;20041;-88
2022/05/21 13:35:31;;;;;;;0.10;0.00;;;29.60;60.60;;;;;;4841954;29;20026;-88
2022/05/21 13:37:58;;;;;;;0.10;0.10;;;30.00;60.40;;;;;;4842105;29;20034;-88
2022/05/21 13:40:43;;;;;;;0.73;0.20;;;30.20;60.30;;;;;;4843478;29;20030;-88
2022/05/21 13:43:11;;;;;;;1.20;0.52;;;29.90;59.10;;;;;;4842885;29;20062;-88
2022/05/21 13:45:56;;;;;;;0.25;0.13;;;29.90;59.80;;;;;;4842742;29;20030;-89
2022/05/21 13:48:45;;;;;;;1.58;0.20;;;30.00;59.50;;;;;;4841602;29;20466;-88
2022/05/21 13:51:17;;;;;;;0.47;0.10;;;29.80;58.90;;;;;;4843052;29;20034;-88
2022/05/21 13:53:45;;;;;;;0.60;0.10;;;29.40;59.10;;;;;;4843285;29;20046;-87
2022/05/21 13:56:37;;;;;;;0.55;0.10;;;29.60;59.20;;;;;;4842937;29;20030;-88
2022/05/21 13:59:19;;;;;;;0.20;0.10;;;29.50;59.30;;;;;;4863400;29;20558;-87
2022/05/21 14:01:54;;;;;;;0.30;0.10;;;29.20;56.70;;;;;;4860194;29;20082;-88
2022/05/21 14:04:34;;;;;;;0.95;0.38;;;29.50;57.00;;;;;;4861163;29;20118;-89
2022/05/21 14:07:01;;;;;;;1.40;0.40;;;29.50;59.20;;;;;;4853186;29;20071;-88
2022/05/21 14:09:29;;;;;;;0.20;0.10;;;29.80;59.80;;;;;;4841579;29;20046;-88
2022/05/21 14:12:12;;;;;;;0.40;0.15;;;29.70;58.60;;;;;;4840824;29;20033;-87
2022/05/21 14:14:41;;;;;;;0.65;0.20;;;29.40;58.10;;;;;;4840872;29;20030;-87
2022/05/21 14:17:27;;;;;;;0.57;0.10;;;29.20;59.00;;;;;;4841849;29;20022;-88
2022/05/21 14:20:14;;;;;;;1.85;0.13;;;29.40;60.00;;;;;;4869493;29;20107;-87
2022/05/21 14:22:42;;;;;;;1.65;0.10;;;29.60;59.80;;;;;;4877903;29;20088;-88
2022/05/21 14:25:28;;;;;;;0.85;0.20;;;29.90;59.00;;;;;;4857788;29;20034;-87
2022/05/21 14:27:58;;;;;;;0.93;0.10;;;29.80;59.00;;;;;;4841142;29;20034;-87
2022/05/21 14:30:45;;;;;;;0.40;0.10;;;29.80;58.80;;;;;;4838566;29;20030;-87
2022/05/21 14:33:15;;;;;;;0.35;0.10;;;29.60;57.90;;;;;;4858322;29;20030;-88
2022/05/21 14:35:42;;;;;;;0.65;0.15;;;29.10;57.90;;;;;;4860210;29;20030;-87
2022/05/21 14:38:08;;;;;;;0.68;0.10;;;28.90;58.60;;;;;;4858391;29;20561;-87
2022/05/21 14:40:59;;;;;;;0.25;0.10;;;28.20;58.60;;;;;;4854988;29;20029;-88
2022/05/21 14:43:57;;;;;;;0.30;0.03;;;27.90;59.70;;;;;;4840480;29;20109;-88
2022/05/21 14:49:10;;;;;;;0.30;0.20;;;27.70;62.10;;;;;;4841443;29;20098;-88
2022/05/21 14:54:27;;;;;;;0.32;0.10;;;28.20;59.40;;;;;;4841652;29;20102;-88
2022/05/21 14:56:53;;;;;;;1.02;0.17;;;28.50;59.30;;;;;;4839816;29;20522;-87
2022/05/21 14:59:18;;;;;;;0.75;0.30;;;28.30;60.10;;;;;;4842804;29;20033;-87
2022/05/21 15:01:45;;;;;;;0.80;0.20;;;28.10;61.20;;;;;;4843858;29;20057;-87
2022/05/21 15:04:11;;;;;;;0.50;0.10;;;27.90;61.50;;;;;;4844139;29;20048;-87
2022/05/21 15:06:40;;;;;;;1.05;0.20;;;27.80;62.30;;;;;;4843343;29;20033;-88
2022/05/21 15:09:07;;;;;;;0.85;0.20;;;27.80;62.10;;;;;;4843681;29;20030;-88
2022/05/21 15:11:34;;;;;;;1.42;0.25;;;28.10;62.00;;;;;;4863960;29;20116;-88
2022/05/21 15:13:59;;;;;;;1.65;0.10;;;28.10;60.80;;;;;;4860797;29;20041;-88
2022/05/21 15:21:04;;;;;;;0.20;0.10;;;28.50;58.80;;;;;;4844586;29;20141;-89
2022/05/21 15:24:23;;;;;;;0.10;0.10;;;28.00;59.40;;;;;;4829002;29;20038;-89
2022/05/21 15:30:58;;;;;;;1.67;0.10;;;26.00;60.70;;;;;;4853204;29;20098;-89
2022/05/21 15:40:39;;;;;;;;;;;;;;;;;;;;;
2022/05/21 15:45:56;;;;;;;1.00;0.40;;;25.10;65.60;;;;;;4841249;29;20530;-88
2022/05/21 15:48:27;;;;;;;1.20;0.20;;;25.10;65.50;;;;;;4839097;29;20078;-88
2022/05/21 15:55:02;;;;;;;;;;;;;;;;;;;;;
2022/05/21 16:10:37;;;;;;;0.80;0.35;;;24.30;66.70;;;;;;4842164;29;20046;-88
2022/05/21 16:13:46;;;;;;;0.52;0.15;;;24.20;67.10;;;;;;4841995;29;20066;-88
2022/05/21 16:16:46;;;;;;;0.60;0.20;;;24.10;67.50;;;;;;4834256;29;20140;-87
2022/05/21 16:20:02;;;;;;;0.73;0.20;;;24.10;67.30;;;;;;4848802;29;20059;-87
2022/05/21 16:27:10;;;;;;;0.82;0.20;;;23.80;68.30;;;;;;4856649;29;20133;-87
2022/05/21 16:29:00;;;;;;;1.65;0.22;;;23.80;68.90;;;;;;4852785;29;20045;-88
2022/05/21 16:31:54;;;;;;;0.25;0.08;;;23.70;68.30;;;;;;4825070;29;20055;-88